Terminal Aerodrome Forecast
Issued by NWS

Home | Current Version | Previous Version | Text Only | Print | Product List | Glossary On
Versions: 1 2 3 4 5 6 7 8 9 10 11 12 13 14 15
000
FTAK31 PAJN 290300 AAA
TAFAWG
TAF AMD
PAWG 290300Z 2903/2924 13008KT P6SM -SHRA FEW015 BKN040 OVC050
      TEMPO 2903/2906 13008G18KT 5SM -SHRA BR SCT015 BKN030 OVC040
     FM291000 14007G14KT P6SM -SHRA SCT015 OVC025
      AMD LTD TO CLD VIS AND WIND 2906/2915=

USA.gov is the U.S. government's official web portal to all federal, state and local government web resources and services.